sensor_id;sensor_type;location;lat;lon;timestamp;P1;durP1;ratioP1;P2;durP2;ratioP2
6979;SDS011;3530;52.832;10.680;2023-09-07T00:00:54;5.63;;;3.80;;
6979;SDS011;3530;52.832;10.680;2023-09-07T00:03:39;4.07;;;3.20;;
6979;SDS011;3530;52.832;10.680;2023-09-07T00:06:26;5.95;;;4.40;;
6979;SDS011;3530;52.832;10.680;2023-09-07T00:09:12;5.85;;;3.88;;
6979;SDS011;3530;52.832;10.680;2023-09-07T00:11:58;2.92;;;2.72;;
6979;SDS011;3530;52.832;10.680;2023-09-07T00:14:44;3.40;;;2.67;;
6979;SDS011;3530;52.832;10.680;2023-09-07T00:17:30;4.88;;;2.70;;
6979;SDS011;3530;52.832;10.680;2023-09-07T00:20:16;3.42;;;3.22;;
6979;SDS011;3530;52.832;10.680;2023-09-07T00:23:02;3.33;;;3.10;;
6979;SDS011;3530;52.832;10.680;2023-09-07T00:25:48;2.83;;;2.63;;
6979;SDS011;3530;52.832;10.680;2023-09-07T00:28:34;4.93;;;3.45;;
6979;SDS011;3530;52.832;10.680;2023-09-07T00:31:19;3.10;;;2.90;;
6979;SDS011;3530;52.832;10.680;2023-09-07T00:34:05;4.20;;;3.38;;
6979;SDS011;3530;52.832;10.680;2023-09-07T00:36:51;3.30;;;3.05;;
6979;SDS011;3530;52.832;10.680;2023-09-07T00:39:36;3.58;;;3.30;;
6979;SDS011;3530;52.832;10.680;2023-09-07T00:42:22;3.83;;;3.40;;
6979;SDS011;3530;52.832;10.680;2023-09-07T00:45:08;3.28;;;3.08;;
6979;SDS011;3530;52.832;10.680;2023-09-07T00:47:54;3.45;;;3.15;;
6979;SDS011;3530;52.832;10.680;2023-09-07T00:50:40;3.45;;;3.22;;
6979;SDS011;3530;52.832;10.680;2023-09-07T00:53:26;3.72;;;3.22;;
6979;SDS011;3530;52.832;10.680;2023-09-07T00:56:12;3.50;;;3.20;;
6979;SDS011;3530;52.832;10.680;2023-09-07T00:58:59;3.40;;;3.20;;
6979;SDS011;3530;52.832;10.680;2023-09-07T01:01:45;3.58;;;3.35;;
6979;SDS011;3530;52.832;10.680;2023-09-07T01:04:31;3.67;;;3.38;;
6979;SDS011;3530;52.832;10.680;2023-09-07T01:07:18;3.63;;;3.33;;
6979;SDS011;3530;52.832;10.680;2023-09-07T01:10:06;5.70;;;3.25;;
6979;SDS011;3530;52.832;10.680;2023-09-07T01:12:53;4.95;;;2.83;;
6979;SDS011;3530;52.832;10.680;2023-09-07T01:15:39;3.17;;;2.97;;
6979;SDS011;3530;52.832;10.680;2023-09-07T01:18:24;3.38;;;3.08;;
6979;SDS011;3530;52.832;10.680;2023-09-07T01:21:10;3.55;;;3.00;;
6979;SDS011;3530;52.832;10.680;2023-09-07T01:23:57;3.88;;;3.58;;
6979;SDS011;3530;52.832;10.680;2023-09-07T01:26:43;3.40;;;3.17;;
6979;SDS011;3530;52.832;10.680;2023-09-07T01:29:29;3.15;;;2.95;;
6979;SDS011;3530;52.832;10.680;2023-09-07T01:32:14;2.80;;;2.60;;
6979;SDS011;3530;52.832;10.680;2023-09-07T01:35:00;4.25;;;2.78;;
6979;SDS011;3530;52.832;10.680;2023-09-07T01:37:46;3.15;;;2.92;;
6979;SDS011;3530;52.832;10.680;2023-09-07T01:40:32;3.92;;;3.55;;
6979;SDS011;3530;52.832;10.680;2023-09-07T01:43:19;3.65;;;3.35;;
6979;SDS011;3530;52.832;10.680;2023-09-07T01:46:05;3.65;;;3.35;;
6979;SDS011;3530;52.832;10.680;2023-09-07T01:48:51;4.68;;;4.20;;
6979;SDS011;3530;52.832;10.680;2023-09-07T01:51:36;4.13;;;3.67;;
6979;SDS011;3530;52.832;10.680;2023-09-07T01:54:22;3.65;;;3.38;;
6979;SDS011;3530;52.832;10.680;2023-09-07T01:57:08;3.83;;;3.53;;
6979;SDS011;3530;52.832;10.680;2023-09-07T01:59:53;4.20;;;3.90;;
6979;SDS011;3530;52.832;10.680;2023-09-07T02:02:39;4.68;;;4.28;;
6979;SDS011;3530;52.832;10.680;2023-09-07T02:05:25;5.68;;;4.95;;
6979;SDS011;3530;52.832;10.680;2023-09-07T02:08:10;4.80;;;4.40;;
6979;SDS011;3530;52.832;10.680;2023-09-07T02:10:57;5.35;;;4.88;;
6979;SDS011;3530;52.832;10.680;2023-09-07T02:13:43;5.05;;;4.65;;
6979;SDS011;3530;52.832;10.680;2023-09-07T02:16:29;5.53;;;5.03;;
6979;SDS011;3530;52.832;10.680;2023-09-07T02:19:15;6.75;;;5.38;;
6979;SDS011;3530;52.832;10.680;2023-09-07T02:22:00;5.53;;;4.53;;
6979;SDS011;3530;52.832;10.680;2023-09-07T02:24:46;4.28;;;3.88;;
6979;SDS011;3530;52.832;10.680;2023-09-07T02:27:32;4.72;;;4.35;;
6979;SDS011;3530;52.832;10.680;2023-09-07T02:30:18;5.43;;;4.97;;
6979;SDS011;3530;52.832;10.680;2023-09-07T02:33:04;5.60;;;5.07;;
6979;SDS011;3530;52.832;10.680;2023-09-07T02:35:50;6.63;;;5.25;;
6979;SDS011;3530;52.832;10.680;2023-09-07T02:38:35;7.43;;;4.47;;
6979;SDS011;3530;52.832;10.680;2023-09-07T02:41:21;6.75;;;4.25;;
6979;SDS011;3530;52.832;10.680;2023-09-07T02:44:06;4.90;;;4.25;;
6979;SDS011;3530;52.832;10.680;2023-09-07T02:46:52;5.60;;;5.10;;
6979;SDS011;3530;52.832;10.680;2023-09-07T02:49:38;5.47;;;4.95;;
6979;SDS011;3530;52.832;10.680;2023-09-07T02:52:24;7.95;;;6.10;;
6979;SDS011;3530;52.832;10.680;2023-09-07T02:55:09;6.32;;;4.90;;
6979;SDS011;3530;52.832;10.680;2023-09-07T02:57:58;7.10;;;5.47;;
6979;SDS011;3530;52.832;10.680;2023-09-07T03:00:45;5.57;;;5.07;;
6979;SDS011;3530;52.832;10.680;2023-09-07T03:03:32;6.32;;;5.50;;
6979;SDS011;3530;52.832;10.680;2023-09-07T03:06:17;6.72;;;5.40;;
6979;SDS011;3530;52.832;10.680;2023-09-07T03:09:03;6.20;;;5.60;;
6979;SDS011;3530;52.832;10.680;2023-09-07T03:11:54;7.88;;;6.30;;
6979;SDS011;3530;52.832;10.680;2023-09-07T03:14:42;6.13;;;5.57;;
6979;SDS011;3530;52.832;10.680;2023-09-07T03:17:29;5.88;;;5.30;;
6979;SDS011;3530;52.832;10.680;2023-09-07T03:20:15;6.47;;;5.50;;
6979;SDS011;3530;52.832;10.680;2023-09-07T03:23:01;5.70;;;5.28;;
6979;SDS011;3530;52.832;10.680;2023-09-07T03:25:47;6.18;;;5.57;;
6979;SDS011;3530;52.832;10.680;2023-09-07T03:28:33;6.22;;;5.63;;
6979;SDS011;3530;52.832;10.680;2023-09-07T03:31:19;7.65;;;6.03;;
6979;SDS011;3530;52.832;10.680;2023-09-07T03:34:04;6.10;;;5.53;;
6979;SDS011;3530;52.832;10.680;2023-09-07T03:36:51;6.25;;;5.65;;
6979;SDS011;3530;52.832;10.680;2023-09-07T03:39:36;6.78;;;5.95;;
6979;SDS011;3530;52.832;10.680;2023-09-07T03:42:22;8.70;;;6.53;;
6979;SDS011;3530;52.832;10.680;2023-09-07T03:45:08;6.90;;;5.85;;
6979;SDS011;3530;52.832;10.680;2023-09-07T03:47:54;6.22;;;5.63;;
6979;SDS011;3530;52.832;10.680;2023-09-07T03:50:39;7.38;;;6.22;;
6979;SDS011;3530;52.832;10.680;2023-09-07T03:53:25;8.35;;;5.88;;
6979;SDS011;3530;52.832;10.680;2023-09-07T03:56:11;6.63;;;6.03;;
6979;SDS011;3530;52.832;10.680;2023-09-07T03:58:56;6.30;;;5.70;;
6979;SDS011;3530;52.832;10.680;2023-09-07T04:01:42;6.30;;;5.70;;
6979;SDS011;3530;52.832;10.680;2023-09-07T04:04:28;7.03;;;6.10;;
6979;SDS011;3530;52.832;10.680;2023-09-07T04:07:13;7.00;;;6.30;;
6979;SDS011;3530;52.832;10.680;2023-09-07T04:09:59;6.68;;;5.55;;
6979;SDS011;3530;52.832;10.680;2023-09-07T04:12:45;6.13;;;5.53;;
6979;SDS011;3530;52.832;10.680;2023-09-07T04:15:30;5.75;;;5.03;;
6979;SDS011;3530;52.832;10.680;2023-09-07T04:18:16;6.55;;;5.82;;
6979;SDS011;3530;52.832;10.680;2023-09-07T04:21:05;6.00;;;5.43;;
6979;SDS011;3530;52.832;10.680;2023-09-07T04:23:52;5.18;;;4.75;;
6979;SDS011;3530;52.832;10.680;2023-09-07T04:26:37;5.85;;;5.25;;
6979;SDS011;3530;52.832;10.680;2023-09-07T04:29:23;5.80;;;5.30;;
6979;SDS011;3530;52.832;10.680;2023-09-07T04:32:09;7.68;;;5.72;;
6979;SDS011;3530;52.832;10.680;2023-09-07T04:34:55;5.65;;;5.10;;
6979;SDS011;3530;52.832;10.680;2023-09-07T04:37:41;5.47;;;4.97;;
6979;SDS011;3530;52.832;10.680;2023-09-07T04:40:28;6.28;;;5.68;;
6979;SDS011;3530;52.832;10.680;2023-09-07T04:43:14;6.65;;;5.85;;
6979;SDS011;3530;52.832;10.680;2023-09-07T04:45:59;6.32;;;5.07;;
6979;SDS011;3530;52.832;10.680;2023-09-07T04:48:45;6.95;;;6.25;;
6979;SDS011;3530;52.832;10.680;2023-09-07T04:51:31;6.60;;;5.93;;
6979;SDS011;3530;52.832;10.680;2023-09-07T04:54:17;6.35;;;5.55;;
6979;SDS011;3530;52.832;10.680;2023-09-07T04:57:02;7.53;;;5.72;;
6979;SDS011;3530;52.832;10.680;2023-09-07T04:59:48;6.60;;;5.90;;
6979;SDS011;3530;52.832;10.680;2023-09-07T05:02:34;6.07;;;5.57;;
6979;SDS011;3530;52.832;10.680;2023-09-07T05:05:23;5.97;;;5.43;;
6979;SDS011;3530;52.832;10.680;2023-09-07T05:08:09;6.75;;;6.00;;
6979;SDS011;3530;52.832;10.680;2023-09-07T05:10:55;7.32;;;5.38;;
6979;SDS011;3530;52.832;10.680;2023-09-07T05:13:42;7.32;;;5.75;;
6979;SDS011;3530;52.832;10.680;2023-09-07T05:16:28;8.32;;;6.45;;
6979;SDS011;3530;52.832;10.680;2023-09-07T05:19:14;7.60;;;6.30;;
6979;SDS011;3530;52.832;10.680;2023-09-07T05:21:59;7.78;;;6.13;;
6979;SDS011;3530;52.832;10.680;2023-09-07T05:24:45;6.63;;;5.53;;
6979;SDS011;3530;52.832;10.680;2023-09-07T05:27:33;7.80;;;5.90;;
6979;SDS011;3530;52.832;10.680;2023-09-07T05:30:20;6.30;;;5.32;;
6979;SDS011;3530;52.832;10.680;2023-09-07T05:33:05;8.40;;;6.03;;
6979;SDS011;3530;52.832;10.680;2023-09-07T05:35:51;8.45;;;6.55;;
6979;SDS011;3530;52.832;10.680;2023-09-07T05:38:37;6.88;;;5.95;;
6979;SDS011;3530;52.832;10.680;2023-09-07T05:41:23;6.82;;;6.18;;
6979;SDS011;3530;52.832;10.680;2023-09-07T05:44:08;6.95;;;6.25;;
6979;SDS011;3530;52.832;10.680;2023-09-07T05:46:54;7.43;;;6.00;;
6979;SDS011;3530;52.832;10.680;2023-09-07T05:49:40;8.43;;;5.40;;
6979;SDS011;3530;52.832;10.680;2023-09-07T05:52:25;7.35;;;6.68;;
6979;SDS011;3530;52.832;10.680;2023-09-07T05:55:11;7.43;;;6.60;;
6979;SDS011;3530;52.832;10.680;2023-09-07T05:57:57;6.68;;;6.03;;
6979;SDS011;3530;52.832;10.680;2023-09-07T06:00:43;7.13;;;5.93;;
6979;SDS011;3530;52.832;10.680;2023-09-07T06:03:28;5.72;;;5.28;;
6979;SDS011;3530;52.832;10.680;2023-09-07T06:06:14;6.18;;;5.57;;
6979;SDS011;3530;52.832;10.680;2023-09-07T06:09:00;6.63;;;5.30;;
6979;SDS011;3530;52.832;10.680;2023-09-07T06:11:45;6.47;;;5.70;;
6979;SDS011;3530;52.832;10.680;2023-09-07T06:14:31;6.60;;;5.97;;
6979;SDS011;3530;52.832;10.680;2023-09-07T06:17:17;7.30;;;6.03;;
6979;SDS011;3530;52.832;10.680;2023-09-07T06:20:02;6.72;;;6.10;;
6979;SDS011;3530;52.832;10.680;2023-09-07T06:22:48;7.13;;;6.22;;
6979;SDS011;3530;52.832;10.680;2023-09-07T06:25:34;6.68;;;6.07;;
6979;SDS011;3530;52.832;10.680;2023-09-07T06:28:20;6.85;;;6.25;;
6979;SDS011;3530;52.832;10.680;2023-09-07T06:31:06;7.43;;;6.45;;
6979;SDS011;3530;52.832;10.680;2023-09-07T06:33:51;7.07;;;6.38;;
6979;SDS011;3530;52.832;10.680;2023-09-07T06:36:37;7.03;;;6.38;;
6979;SDS011;3530;52.832;10.680;2023-09-07T06:39:23;7.57;;;6.75;;
6979;SDS011;3530;52.832;10.680;2023-09-07T06:42:08;6.60;;;6.00;;
6979;SDS011;3530;52.832;10.680;2023-09-07T06:44:55;8.45;;;6.35;;
6979;SDS011;3530;52.832;10.680;2023-09-07T06:47:41;7.32;;;6.63;;
6979;SDS011;3530;52.832;10.680;2023-09-07T06:50:26;7.00;;;6.30;;
6979;SDS011;3530;52.832;10.680;2023-09-07T06:53:12;6.65;;;6.05;;
6979;SDS011;3530;52.832;10.680;2023-09-07T06:55:58;6.85;;;6.25;;
6979;SDS011;3530;52.832;10.680;2023-09-07T06:58:45;7.80;;;6.70;;
6979;SDS011;3530;52.832;10.680;2023-09-07T07:01:30;6.45;;;5.82;;
6979;SDS011;3530;52.832;10.680;2023-09-07T07:04:16;6.68;;;5.97;;
6979;SDS011;3530;52.832;10.680;2023-09-07T07:07:01;7.38;;;6.15;;
6979;SDS011;3530;52.832;10.680;2023-09-07T07:09:49;7.38;;;6.68;;
6979;SDS011;3530;52.832;10.680;2023-09-07T07:12:36;7.05;;;6.38;;
6979;SDS011;3530;52.832;10.680;2023-09-07T07:15:23;7.95;;;6.57;;
6979;SDS011;3530;52.832;10.680;2023-09-07T07:18:09;6.97;;;5.93;;
6979;SDS011;3530;52.832;10.680;2023-09-07T07:20:54;6.97;;;6.13;;
6979;SDS011;3530;52.832;10.680;2023-09-07T07:23:40;9.18;;;6.82;;
6979;SDS011;3530;52.832;10.680;2023-09-07T07:26:26;9.10;;;6.22;;
6979;SDS011;3530;52.832;10.680;2023-09-07T07:29:11;6.53;;;5.93;;
6979;SDS011;3530;52.832;10.680;2023-09-07T07:31:57;8.32;;;6.18;;
6979;SDS011;3530;52.832;10.680;2023-09-07T07:34:43;7.20;;;6.50;;
6979;SDS011;3530;52.832;10.680;2023-09-07T07:37:28;7.13;;;6.47;;
6979;SDS011;3530;52.832;10.680;2023-09-07T07:40:14;7.15;;;6.45;;
6979;SDS011;3530;52.832;10.680;2023-09-07T07:43:00;6.72;;;6.00;;
6979;SDS011;3530;52.832;10.680;2023-09-07T07:45:45;5.25;;;4.75;;
6979;SDS011;3530;52.832;10.680;2023-09-07T07:48:31;6.90;;;5.97;;
6979;SDS011;3530;52.832;10.680;2023-09-07T07:51:19;6.55;;;5.20;;
6979;SDS011;3530;52.832;10.680;2023-09-07T07:54:04;6.82;;;5.97;;
6979;SDS011;3530;52.832;10.680;2023-09-07T07:56:50;6.15;;;5.65;;
6979;SDS011;3530;52.832;10.680;2023-09-07T07:59:36;6.28;;;5.68;;
6979;SDS011;3530;52.832;10.680;2023-09-07T08:02:21;5.97;;;5.38;;
6979;SDS011;3530;52.832;10.680;2023-09-07T08:05:07;5.28;;;4.88;;
6979;SDS011;3530;52.832;10.680;2023-09-07T08:07:53;5.47;;;4.90;;
6979;SDS011;3530;52.832;10.680;2023-09-07T08:10:39;6.20;;;5.60;;
6979;SDS011;3530;52.832;10.680;2023-09-07T08:13:26;7.50;;;5.75;;
6979;SDS011;3530;52.832;10.680;2023-09-07T08:16:12;7.60;;;5.68;;
6979;SDS011;3530;52.832;10.680;2023-09-07T08:18:58;5.28;;;4.88;;
6979;SDS011;3530;52.832;10.680;2023-09-07T08:21:43;4.97;;;4.55;;
6979;SDS011;3530;52.832;10.680;2023-09-07T08:24:31;5.90;;;5.40;;
6979;SDS011;3530;52.832;10.680;2023-09-07T08:27:17;6.45;;;5.25;;
6979;SDS011;3530;52.832;10.680;2023-09-07T08:30:03;5.30;;;4.90;;
6979;SDS011;3530;52.832;10.680;2023-09-07T08:32:51;6.68;;;6.07;;
6979;SDS011;3530;52.832;10.680;2023-09-07T08:35:37;6.13;;;4.88;;
6979;SDS011;3530;52.832;10.680;2023-09-07T08:38:29;5.75;;;4.72;;
6979;SDS011;3530;52.832;10.680;2023-09-07T08:41:16;6.72;;;5.82;;
6979;SDS011;3530;52.832;10.680;2023-09-07T08:44:01;5.45;;;5.05;;
6979;SDS011;3530;52.832;10.680;2023-09-07T08:46:48;4.95;;;4.47;;
6979;SDS011;3530;52.832;10.680;2023-09-07T08:49:35;5.75;;;4.65;;
6979;SDS011;3530;52.832;10.680;2023-09-07T08:52:21;5.78;;;4.85;;
6979;SDS011;3530;52.832;10.680;2023-09-07T08:55:07;5.07;;;4.57;;
6979;SDS011;3530;52.832;10.680;2023-09-07T08:57:53;5.20;;;4.70;;
6979;SDS011;3530;52.832;10.680;2023-09-07T09:00:38;5.70;;;5.20;;
6979;SDS011;3530;52.832;10.680;2023-09-07T09:03:28;6.70;;;4.50;;
6979;SDS011;3530;52.832;10.680;2023-09-07T09:06:18;4.85;;;4.45;;
6979;SDS011;3530;52.832;10.680;2023-09-07T09:09:05;4.82;;;4.35;;
6979;SDS011;3530;52.832;10.680;2023-09-07T09:11:51;5.70;;;5.20;;
6979;SDS011;3530;52.832;10.680;2023-09-07T09:14:36;6.47;;;4.35;;
6979;SDS011;3530;52.832;10.680;2023-09-07T09:17:24;5.05;;;4.60;;
6979;SDS011;3530;52.832;10.680;2023-09-07T09:20:23;5.95;;;4.80;;
6979;SDS011;3530;52.832;10.680;2023-09-07T09:23:09;5.75;;;5.15;;
6979;SDS011;3530;52.832;10.680;2023-09-07T09:25:57;5.65;;;4.82;;
6979;SDS011;3530;52.832;10.680;2023-09-07T09:28:43;7.03;;;5.28;;
6979;SDS011;3530;52.832;10.680;2023-09-07T09:31:32;5.68;;;5.03;;
6979;SDS011;3530;52.832;10.680;2023-09-07T09:34:18;6.38;;;5.15;;
6979;SDS011;3530;52.832;10.680;2023-09-07T09:37:05;5.85;;;4.93;;
6979;SDS011;3530;52.832;10.680;2023-09-07T09:39:59;5.28;;;4.25;;
6979;SDS011;3530;52.832;10.680;2023-09-07T09:42:45;6.90;;;5.05;;
6979;SDS011;3530;52.832;10.680;2023-09-07T09:45:31;4.78;;;4.38;;
6979;SDS011;3530;52.832;10.680;2023-09-07T09:48:18;6.03;;;4.88;;
6979;SDS011;3530;52.832;10.680;2023-09-07T09:51:05;4.90;;;4.15;;
6979;SDS011;3530;52.832;10.680;2023-09-07T09:53:53;4.55;;;3.95;;
6979;SDS011;3530;52.832;10.680;2023-09-07T09:56:39;5.00;;;4.60;;
6979;SDS011;3530;52.832;10.680;2023-09-07T09:59:24;5.10;;;4.15;;
6979;SDS011;3530;52.832;10.680;2023-09-07T10:02:10;4.75;;;4.35;;
6979;SDS011;3530;52.832;10.680;2023-09-07T10:04:56;6.95;;;5.40;;
6979;SDS011;3530;52.832;10.680;2023-09-07T10:07:42;4.43;;;4.03;;
6979;SDS011;3530;52.832;10.680;2023-09-07T10:10:31;4.75;;;4.22;;
6979;SDS011;3530;52.832;10.680;2023-09-07T10:13:28;5.43;;;5.00;;
6979;SDS011;3530;52.832;10.680;2023-09-07T10:16:15;7.65;;;4.40;;
6979;SDS011;3530;52.832;10.680;2023-09-07T10:19:01;5.55;;;4.90;;
6979;SDS011;3530;52.832;10.680;2023-09-07T10:21:47;4.95;;;4.45;;
6979;SDS011;3530;52.832;10.680;2023-09-07T10:24:34;5.80;;;5.30;;
6979;SDS011;3530;52.832;10.680;2023-09-07T10:27:24;5.22;;;4.63;;
6979;SDS011;3530;52.832;10.680;2023-09-07T10:30:10;4.80;;;4.30;;
6979;SDS011;3530;52.832;10.680;2023-09-07T10:32:58;5.38;;;4.50;;
6979;SDS011;3530;52.832;10.680;2023-09-07T10:35:44;4.95;;;4.53;;
6979;SDS011;3530;52.832;10.680;2023-09-07T10:38:33;6.57;;;5.97;;
6979;SDS011;3530;52.832;10.680;2023-09-07T10:41:20;5.35;;;4.85;;
6979;SDS011;3530;52.832;10.680;2023-09-07T10:44:06;4.53;;;4.22;;
6979;SDS011;3530;52.832;10.680;2023-09-07T10:46:52;4.93;;;4.50;;
6979;SDS011;3530;52.832;10.680;2023-09-07T10:49:37;5.53;;;4.30;;
6979;SDS011;3530;52.832;10.680;2023-09-07T10:52:23;7.15;;;5.20;;
6979;SDS011;3530;52.832;10.680;2023-09-07T10:55:10;7.88;;;5.00;;
6979;SDS011;3530;52.832;10.680;2023-09-07T10:57:56;5.93;;;4.75;;
6979;SDS011;3530;52.832;10.680;2023-09-07T11:00:42;5.20;;;4.70;;
6979;SDS011;3530;52.832;10.680;2023-09-07T11:03:28;5.00;;;4.60;;
6979;SDS011;3530;52.832;10.680;2023-09-07T11:06:15;6.30;;;4.65;;
6979;SDS011;3530;52.832;10.680;2023-09-07T11:09:04;4.43;;;4.10;;
6979;SDS011;3530;52.832;10.680;2023-09-07T11:11:50;6.20;;;4.38;;
6979;SDS011;3530;52.832;10.680;2023-09-07T11:14:35;6.05;;;4.47;;
6979;SDS011;3530;52.832;10.680;2023-09-07T11:17:26;4.40;;;4.00;;
6979;SDS011;3530;52.832;10.680;2023-09-07T11:20:13;5.10;;;4.68;;
6979;SDS011;3530;52.832;10.680;2023-09-07T11:22:59;4.90;;;4.35;;
6979;SDS011;3530;52.832;10.680;2023-09-07T11:25:46;5.07;;;4.25;;
6979;SDS011;3530;52.832;10.680;2023-09-07T11:28:32;5.10;;;4.60;;
6979;SDS011;3530;52.832;10.680;2023-09-07T11:31:19;4.10;;;3.80;;
6979;SDS011;3530;52.832;10.680;2023-09-07T11:34:13;5.28;;;4.10;;
6979;SDS011;3530;52.832;10.680;2023-09-07T11:37:01;7.45;;;5.22;;
6979;SDS011;3530;52.832;10.680;2023-09-07T11:39:48;7.15;;;4.57;;
6979;SDS011;3530;52.832;10.680;2023-09-07T11:42:33;6.57;;;4.45;;
6979;SDS011;3530;52.832;10.680;2023-09-07T11:45:19;4.50;;;4.10;;
6979;SDS011;3530;52.832;10.680;2023-09-07T11:48:05;4.30;;;4.00;;
6979;SDS011;3530;52.832;10.680;2023-09-07T11:50:51;4.82;;;4.13;;
6979;SDS011;3530;52.832;10.680;2023-09-07T11:53:36;9.10;;;5.32;;
6979;SDS011;3530;52.832;10.680;2023-09-07T11:56:22;5.03;;;4.53;;
6979;SDS011;3530;52.832;10.680;2023-09-07T11:59:08;4.47;;;4.00;;
6979;SDS011;3530;52.832;10.680;2023-09-07T12:01:54;5.28;;;4.20;;
6979;SDS011;3530;52.832;10.680;2023-09-07T12:04:40;6.20;;;4.25;;
6979;SDS011;3530;52.832;10.680;2023-09-07T12:07:26;5.57;;;4.10;;
6979;SDS011;3530;52.832;10.680;2023-09-07T12:10:12;4.63;;;4.22;;
6979;SDS011;3530;52.832;10.680;2023-09-07T12:12:58;4.32;;;3.92;;
6979;SDS011;3530;52.832;10.680;2023-09-07T12:15:44;5.00;;;4.50;;
6979;SDS011;3530;52.832;10.680;2023-09-07T12:18:30;4.22;;;3.83;;
6979;SDS011;3530;52.832;10.680;2023-09-07T12:21:15;6.45;;;4.38;;
6979;SDS011;3530;52.832;10.680;2023-09-07T12:24:01;4.95;;;3.95;;
6979;SDS011;3530;52.832;10.680;2023-09-07T12:26:47;4.30;;;4.00;;
6979;SDS011;3530;52.832;10.680;2023-09-07T12:29:32;4.32;;;3.92;;
6979;SDS011;3530;52.832;10.680;2023-09-07T12:32:18;4.80;;;3.60;;
6979;SDS011;3530;52.832;10.680;2023-09-07T12:35:04;4.13;;;3.83;;
6979;SDS011;3530;52.832;10.680;2023-09-07T12:37:53;4.53;;;3.92;;
6979;SDS011;3530;52.832;10.680;2023-09-07T12:40:39;4.65;;;3.92;;
6979;SDS011;3530;52.832;10.680;2023-09-07T12:43:25;4.38;;;3.60;;
6979;SDS011;3530;52.832;10.680;2023-09-07T12:46:10;4.32;;;3.67;;
6979;SDS011;3530;52.832;10.680;2023-09-07T12:48:56;4.22;;;3.63;;
6979;SDS011;3530;52.832;10.680;2023-09-07T12:51:42;5.93;;;4.10;;
6979;SDS011;3530;52.832;10.680;2023-09-07T12:54:27;6.13;;;4.10;;
6979;SDS011;3530;52.832;10.680;2023-09-07T12:57:13;5.88;;;3.60;;
6979;SDS011;3530;52.832;10.680;2023-09-07T12:59:59;5.30;;;4.25;;
6979;SDS011;3530;52.832;10.680;2023-09-07T13:02:45;4.75;;;3.67;;
6979;SDS011;3530;52.832;10.680;2023-09-07T13:05:30;3.38;;;3.10;;
6979;SDS011;3530;52.832;10.680;2023-09-07T13:08:16;3.80;;;3.28;;
6979;SDS011;3530;52.832;10.680;2023-09-07T13:11:01;5.03;;;3.60;;
6979;SDS011;3530;52.832;10.680;2023-09-07T13:13:47;4.43;;;3.42;;
6979;SDS011;3530;52.832;10.680;2023-09-07T13:16:33;3.22;;;2.92;;
6979;SDS011;3530;52.832;10.680;2023-09-07T13:19:18;3.35;;;3.05;;
6979;SDS011;3530;52.832;10.680;2023-09-07T13:22:04;3.60;;;3.30;;
6979;SDS011;3530;52.832;10.680;2023-09-07T13:24:51;3.40;;;3.10;;
6979;SDS011;3530;52.832;10.680;2023-09-07T13:27:37;3.30;;;3.00;;
6979;SDS011;3530;52.832;10.680;2023-09-07T13:30:23;5.28;;;3.05;;
6979;SDS011;3530;52.832;10.680;2023-09-07T13:33:09;3.05;;;2.85;;
6979;SDS011;3530;52.832;10.680;2023-09-07T13:35:54;3.05;;;2.85;;
6979;SDS011;3530;52.832;10.680;2023-09-07T13:38:40;4.15;;;2.97;;
6979;SDS011;3530;52.832;10.680;2023-09-07T13:41:26;2.80;;;2.60;;
6979;SDS011;3530;52.832;10.680;2023-09-07T13:44:13;3.47;;;3.17;;
6979;SDS011;3530;52.832;10.680;2023-09-07T13:46:59;3.30;;;2.63;;
6979;SDS011;3530;52.832;10.680;2023-09-07T13:49:45;2.65;;;2.45;;
6979;SDS011;3530;52.832;10.680;2023-09-07T13:52:31;4.97;;;3.20;;
6979;SDS011;3530;52.832;10.680;2023-09-07T13:55:16;4.53;;;2.65;;
6979;SDS011;3530;52.832;10.680;2023-09-07T13:58:03;2.88;;;2.63;;
6979;SDS011;3530;52.832;10.680;2023-09-07T14:00:48;2.30;;;2.10;;
6979;SDS011;3530;52.832;10.680;2023-09-07T14:03:36;3.40;;;3.10;;
6979;SDS011;3530;52.832;10.680;2023-09-07T14:06:22;4.68;;;3.28;;
6979;SDS011;3530;52.832;10.680;2023-09-07T14:09:09;3.38;;;3.10;;
6979;SDS011;3530;52.832;10.680;2023-09-07T14:11:54;3.42;;;3.13;;
6979;SDS011;3530;52.832;10.680;2023-09-07T14:14:41;3.50;;;3.00;;
6979;SDS011;3530;52.832;10.680;2023-09-07T14:17:26;5.05;;;3.33;;
6979;SDS011;3530;52.832;10.680;2023-09-07T14:20:12;3.28;;;3.00;;
6979;SDS011;3530;52.832;10.680;2023-09-07T14:22:58;4.32;;;2.90;;
6979;SDS011;3530;52.832;10.680;2023-09-07T14:25:45;4.22;;;3.35;;
6979;SDS011;3530;52.832;10.680;2023-09-07T14:28:30;9.43;;;3.50;;
6979;SDS011;3530;52.832;10.680;2023-09-07T14:31:16;3.60;;;3.22;;
6979;SDS011;3530;52.832;10.680;2023-09-07T14:34:01;2.47;;;2.38;;
6979;SDS011;3530;52.832;10.680;2023-09-07T14:36:47;4.93;;;3.17;;
6979;SDS011;3530;52.832;10.680;2023-09-07T14:39:33;3.00;;;2.80;;
6979;SDS011;3530;52.832;10.680;2023-09-07T14:42:20;4.70;;;3.17;;
6979;SDS011;3530;52.832;10.680;2023-09-07T14:45:06;5.05;;;3.17;;
6979;SDS011;3530;52.832;10.680;2023-09-07T14:47:52;4.45;;;3.30;;
6979;SDS011;3530;52.832;10.680;2023-09-07T14:50:38;3.08;;;2.78;;
6979;SDS011;3530;52.832;10.680;2023-09-07T14:53:23;3.50;;;2.92;;
6979;SDS011;3530;52.832;10.680;2023-09-07T14:56:09;6.15;;;3.42;;
6979;SDS011;3530;52.832;10.680;2023-09-07T14:58:55;2.92;;;2.72;;
6979;SDS011;3530;52.832;10.680;2023-09-07T15:01:40;2.88;;;2.67;;
6979;SDS011;3530;52.832;10.680;2023-09-07T15:04:26;5.10;;;3.80;;
6979;SDS011;3530;52.832;10.680;2023-09-07T15:07:12;3.03;;;2.78;;
6979;SDS011;3530;52.832;10.680;2023-09-07T15:09:57;3.40;;;3.10;;
6979;SDS011;3530;52.832;10.680;2023-09-07T15:12:43;3.58;;;3.25;;
6979;SDS011;3530;52.832;10.680;2023-09-07T15:15:30;3.65;;;3.35;;
6979;SDS011;3530;52.832;10.680;2023-09-07T15:18:18;5.25;;;3.67;;
6979;SDS011;3530;52.832;10.680;2023-09-07T15:21:04;3.60;;;3.30;;
6979;SDS011;3530;52.832;10.680;2023-09-07T15:23:50;3.30;;;3.00;;
6979;SDS011;3530;52.832;10.680;2023-09-07T15:26:42;3.28;;;3.05;;
6979;SDS011;3530;52.832;10.680;2023-09-07T15:29:28;7.57;;;3.40;;
6979;SDS011;3530;52.832;10.680;2023-09-07T15:32:14;6.50;;;2.58;;
6979;SDS011;3530;52.832;10.680;2023-09-07T15:34:59;6.00;;;3.03;;
6979;SDS011;3530;52.832;10.680;2023-09-07T15:37:45;4.47;;;2.78;;
6979;SDS011;3530;52.832;10.680;2023-09-07T15:40:31;3.60;;;3.30;;
6979;SDS011;3530;52.832;10.680;2023-09-07T15:43:17;3.20;;;2.88;;
6979;SDS011;3530;52.832;10.680;2023-09-07T15:46:03;5.50;;;3.38;;
6979;SDS011;3530;52.832;10.680;2023-09-07T15:48:48;4.40;;;2.95;;
6979;SDS011;3530;52.832;10.680;2023-09-07T15:51:34;4.63;;;3.50;;
6979;SDS011;3530;52.832;10.680;2023-09-07T15:54:20;5.72;;;3.53;;
6979;SDS011;3530;52.832;10.680;2023-09-07T15:57:05;2.90;;;2.70;;
6979;SDS011;3530;52.832;10.680;2023-09-07T15:59:51;3.72;;;3.42;;
6979;SDS011;3530;52.832;10.680;2023-09-07T16:02:37;6.03;;;3.45;;
6979;SDS011;3530;52.832;10.680;2023-09-07T16:05:23;4.03;;;3.53;;
6979;SDS011;3530;52.832;10.680;2023-09-07T16:08:11;3.22;;;3.03;;
6979;SDS011;3530;52.832;10.680;2023-09-07T16:10:58;4.30;;;3.35;;
6979;SDS011;3530;52.832;10.680;2023-09-07T16:13:44;5.93;;;3.45;;
6979;SDS011;3530;52.832;10.680;2023-09-07T16:16:30;3.97;;;3.60;;
6979;SDS011;3530;52.832;10.680;2023-09-07T16:19:15;20.80;;;4.72;;
6979;SDS011;3530;52.832;10.680;2023-09-07T16:22:01;5.20;;;3.80;;
6979;SDS011;3530;52.832;10.680;2023-09-07T16:24:51;5.15;;;3.22;;
6979;SDS011;3530;52.832;10.680;2023-09-07T16:27:37;6.20;;;3.33;;
6979;SDS011;3530;52.832;10.680;2023-09-07T16:30:25;3.50;;;3.20;;
6979;SDS011;3530;52.832;10.680;2023-09-07T16:33:11;6.30;;;3.50;;
6979;SDS011;3530;52.832;10.680;2023-09-07T16:35:57;5.68;;;3.47;;
6979;SDS011;3530;52.832;10.680;2023-09-07T16:38:42;5.65;;;3.55;;
6979;SDS011;3530;52.832;10.680;2023-09-07T16:41:28;11.70;;;3.60;;
6979;SDS011;3530;52.832;10.680;2023-09-07T16:44:14;3.30;;;3.05;;
6979;SDS011;3530;52.832;10.680;2023-09-07T16:46:59;4.70;;;3.30;;
6979;SDS011;3530;52.832;10.680;2023-09-07T16:49:45;7.85;;;3.75;;
6979;SDS011;3530;52.832;10.680;2023-09-07T16:52:31;5.68;;;3.80;;
6979;SDS011;3530;52.832;10.680;2023-09-07T16:55:17;3.85;;;3.45;;